Time;durP1;ratioP1;P1;durP2;ratioP2;P2;SDS_P1;SDS_P2;PMS_P1;PMS_P2;Temp;Humidity;BMP_temperature;BMP_pressure;BME280_temperature;BME280_humidity;BME280_pressure;Samples;Min_cycle;Max_cycle;Signal;HPM_P1;HPM_P2
2022/06/25 00:01:19;;;;;;;33.40;30.00;;;19.50;99.90;;;;;;5077177;28;20923;-82
2022/06/25 00:03:46;;;;;;;34.17;30.63;;;19.60;99.90;;;;;;5069505;28;20448;-82
2022/06/25 00:06:15;;;;;;;30.60;27.53;;;19.50;99.90;;;;;;5092748;28;20577;-82
2022/06/25 00:08:44;;;;;;;34.67;31.03;;;19.50;99.90;;;;;;5075468;28;20478;-82
2022/06/25 00:12:31;;;;;;;30.43;26.97;;;19.50;99.90;;;;;;5070595;28;20461;-83
2022/06/25 00:13:58;;;;;;;32.97;29.77;;;19.50;99.90;;;;;;5083691;28;20489;-81
2022/06/25 00:16:25;;;;;;;32.27;28.90;;;19.50;99.90;;;;;;5073369;28;20446;-82
2022/06/25 00:18:52;;;;;;;28.33;25.47;;;19.50;99.90;;;;;;5079476;28;20639;-83
2022/06/25 00:21:20;;;;;;;31.07;28.17;;;19.50;99.90;;;;;;5091269;28;20927;-81
2022/06/25 00:23:47;;;;;;;29.93;27.23;;;19.50;99.90;;;;;;5093459;28;20627;-84
2022/06/25 00:26:14;;;;;;;27.20;24.50;;;19.50;99.90;;;;;;5075962;28;20441;-83
2022/06/25 00:28:41;;;;;;;28.90;25.90;;;19.50;99.90;;;;;;5085056;28;20450;-81
2022/06/25 00:31:08;;;;;;;26.63;23.97;;;19.50;99.90;;;;;;5073623;28;20474;-83
2022/06/25 00:33:35;;;;;;;28.77;25.77;;;19.50;99.90;;;;;;5086022;28;20450;-83
2022/06/25 00:36:02;;;;;;;33.60;30.20;;;19.50;99.90;;;;;;5083168;28;20884;-82
2022/06/25 00:38:30;;;;;;;32.93;29.70;;;19.60;99.90;;;;;;5091001;28;20814;-83
2022/06/25 00:40:57;;;;;;;29.40;26.30;;;19.60;99.90;;;;;;5074248;28;20550;-82
2022/06/25 00:43:24;;;;;;;31.17;28.13;;;19.50;99.90;;;;;;5071508;28;20822;-82
2022/06/25 00:45:51;;;;;;;31.30;28.33;;;19.50;99.90;;;;;;5087383;28;20443;-83
2022/06/25 00:48:18;;;;;;;32.37;29.03;;;19.60;99.90;;;;;;5065153;28;20485;-83
2022/06/25 00:50:45;;;;;;;32.53;29.23;;;19.50;99.90;;;;;;5065325;28;20482;-83
2022/06/25 00:53:13;;;;;;;34.60;31.10;;;19.60;99.90;;;;;;5072653;28;21306;-81
2022/06/25 00:55:43;;;;;;;30.03;27.10;;;19.60;99.90;;;;;;5076276;28;20539;-82
2022/06/25 00:58:12;;;;;;;29.77;26.83;;;19.60;99.90;;;;;;5086116;28;20827;-82
2022/06/25 01:00:40;;;;;;;31.50;28.00;;;19.50;99.90;;;;;;5079116;28;20950;-82
2022/06/25 01:03:07;;;;;;;32.53;29.40;;;19.50;99.90;;;;;;5079363;28;20488;-82
2022/06/25 01:05:34;;;;;;;32.90;29.10;;;19.50;99.90;;;;;;5078974;28;20434;-81
2022/06/25 01:08:01;;;;;;;34.60;31.17;;;19.50;99.90;;;;;;5079438;28;20453;-82
2022/06/25 01:10:28;;;;;;;35.97;31.07;;;19.50;99.90;;;;;;5099654;28;20528;-82
2022/06/25 01:12:56;;;;;;;36.10;32.50;;;19.40;99.90;;;;;;5087135;28;20539;-82
2022/06/25 01:15:23;;;;;;;38.13;33.90;;;19.40;99.90;;;;;;5080775;28;20513;-82
2022/06/25 01:17:52;;;;;;;43.70;39.13;;;19.50;99.90;;;;;;5071455;28;20935;-81
2022/06/25 01:20:23;;;;;;;45.67;39.00;;;19.40;99.90;;;;;;5085200;28;21079;-83
2022/06/25 01:22:52;;;;;;;37.23;33.70;;;19.30;99.90;;;;;;5082893;28;20777;-83
2022/06/25 01:25:19;;;;;;;39.87;35.63;;;19.30;99.90;;;;;;5083004;28;20570;-83
2022/06/25 01:27:46;;;;;;;37.93;34.10;;;19.30;99.90;;;;;;5076804;28;20874;-82
2022/06/25 01:30:14;;;;;;;39.73;35.73;;;19.40;99.90;;;;;;5078831;28;20509;-81
2022/06/25 01:32:41;;;;;;;38.03;34.10;;;19.30;99.90;;;;;;5072224;28;20493;-82
2022/06/25 01:35:09;;;;;;;40.87;36.67;;;19.40;99.90;;;;;;5075667;28;20533;-83
2022/06/25 01:37:36;;;;;;;44.07;39.37;;;19.20;99.90;;;;;;5079554;28;20447;-83
2022/06/25 01:40:05;;;;;;;40.37;36.20;;;19.20;99.90;;;;;;5078093;28;20507;-83
2022/06/25 01:45:16;;;;;;;45.10;39.97;;;19.20;99.90;;;;;;5080703;28;20443;-83
2022/06/25 01:47:43;;;;;;;45.37;40.30;;;19.20;99.90;;;;;;5067286;28;20477;-83
2022/06/25 01:50:12;;;;;;;45.47;40.30;;;19.20;99.90;;;;;;5084348;28;20540;-83
2022/06/25 01:52:40;;;;;;;48.20;40.67;;;19.10;99.90;;;;;;5085024;28;20556;-82
2022/06/25 01:55:09;;;;;;;43.13;38.43;;;19.10;99.90;;;;;;5067118;28;20934;-82
2022/06/25 01:57:36;;;;;;;41.00;35.87;;;19.10;99.90;;;;;;5082778;28;20875;-81
2022/06/25 02:00:05;;;;;;;47.27;38.80;;;19.20;99.90;;;;;;5077813;28;20525;-83
2022/06/25 02:02:32;;;;;;;42.80;37.87;;;19.00;99.90;;;;;;5075566;28;20552;-82
2022/06/25 02:04:59;;;;;;;45.00;40.17;;;19.00;99.90;;;;;;5089889;28;20424;-83
2022/06/25 02:07:26;;;;;;;44.73;39.47;;;19.00;99.90;;;;;;5079733;28;20449;-79
2022/06/25 02:09:52;;;;;;;44.17;39.47;;;19.00;99.90;;;;;;5066313;28;20470;-82
2022/06/25 02:12:21;;;;;;;42.43;37.83;;;19.00;99.90;;;;;;5089087;28;20517;-83
2022/06/25 02:14:48;;;;;;;32.50;29.27;;;19.10;99.90;;;;;;5085576;28;20529;-82
2022/06/25 02:17:14;;;;;;;34.03;30.60;;;19.00;99.90;;;;;;5102666;28;20457;-80
2022/06/25 02:19:41;;;;;;;36.73;33.00;;;18.90;99.90;;;;;;5097550;28;20441;-82
2022/06/25 02:22:14;;;;;;;36.27;32.40;;;18.90;99.90;;;;;;5074780;28;20459;-82
2022/06/25 02:24:41;;;;;;;36.60;32.80;;;18.90;99.90;;;;;;5079891;28;20453;-83
2022/06/25 02:27:08;;;;;;;34.93;31.43;;;18.80;99.90;;;;;;5085558;28;20452;-81
2022/06/25 02:29:36;;;;;;;33.70;30.23;;;18.70;99.90;;;;;;5082070;28;20523;-83
2022/06/25 02:32:05;;;;;;;35.33;31.93;;;18.70;99.90;;;;;;5082165;28;20479;-81
2022/06/25 02:34:32;;;;;;;37.20;33.50;;;18.70;99.90;;;;;;5069976;28;20577;-82
2022/06/25 02:36:59;;;;;;;36.13;32.63;;;18.70;99.90;;;;;;5076888;28;20964;-83
2022/06/25 02:39:25;;;;;;;40.47;36.37;;;18.70;99.90;;;;;;5091256;28;20929;-83
2022/06/25 02:41:52;;;;;;;43.10;38.70;;;18.70;99.90;;;;;;5085213;28;20539;-83
2022/06/25 02:44:19;;;;;;;41.50;37.10;;;18.70;99.90;;;;;;5096410;28;20451;-83
2022/06/25 02:46:47;;;;;;;38.77;34.67;;;18.60;99.90;;;;;;5079395;28;20445;-82
2022/06/25 02:49:14;;;;;;;42.83;38.23;;;18.70;99.90;;;;;;5072120;28;20474;-83
2022/06/25 02:51:41;;;;;;;46.33;39.37;;;18.70;99.90;;;;;;5073573;28;20558;-82
2022/06/25 02:54:08;;;;;;;40.57;36.47;;;18.80;99.90;;;;;;5078189;28;20477;-83
2022/06/25 02:59:19;;;;;;;45.57;39.03;;;18.80;99.90;;;;;;5079870;28;20472;-82
2022/06/25 03:01:47;;;;;;;42.17;37.67;;;18.80;99.90;;;;;;5086514;28;20555;-83
2022/06/25 03:04:14;;;;;;;39.03;34.77;;;18.80;99.90;;;;;;5087004;28;20439;-83
2022/06/25 03:06:41;;;;;;;39.17;33.93;;;18.90;99.90;;;;;;5077309;28;20521;-81
2022/06/25 03:09:08;;;;;;;38.63;34.67;;;19.00;99.90;;;;;;5072615;28;20480;-82
2022/06/25 03:11:35;;;;;;;38.87;34.60;;;19.10;99.90;;;;;;5077850;28;20462;-82
2022/06/25 03:14:02;;;;;;;45.23;38.03;;;19.20;99.90;;;;;;5087672;28;20946;-81
2022/06/25 03:16:28;;;;;;;44.23;37.77;;;19.10;99.90;;;;;;5088195;28;20549;-83
2022/06/25 03:18:57;;;;;;;40.37;35.40;;;19.10;99.90;;;;;;5077310;28;20914;-81
2022/06/25 03:21:23;;;;;;;45.07;40.00;;;19.10;99.90;;;;;;5082686;28;20513;-81
2022/06/25 03:23:50;;;;;;;41.43;37.03;;;19.00;99.90;;;;;;5082304;28;20877;-83
2022/06/25 03:26:17;;;;;;;37.03;32.33;;;19.00;99.90;;;;;;5090972;28;20433;-81
2022/06/25 03:28:44;;;;;;;48.53;39.73;;;19.00;99.90;;;;;;5093861;28;20444;-80
2022/06/25 03:31:11;;;;;;;44.23;39.47;;;18.90;99.90;;;;;;5075378;28;20464;-83
2022/06/25 03:33:39;;;;;;;40.87;36.50;;;18.80;99.90;;;;;;5090691;28;20456;-82
2022/06/25 03:36:07;;;;;;;37.43;33.63;;;18.90;99.90;;;;;;5075764;28;20508;-83
2022/06/25 03:38:34;;;;;;;39.07;34.37;;;18.90;99.90;;;;;;5073818;28;20445;-83
2022/06/25 03:43:47;;;;;;;38.10;34.40;;;18.90;99.90;;;;;;5069686;28;20421;-83
2022/06/25 03:46:14;;;;;;;40.23;35.87;;;18.90;99.90;;;;;;5069174;28;20485;-83
2022/06/25 03:48:41;;;;;;;38.30;34.60;;;18.90;99.90;;;;;;5080073;28;20444;-81
2022/06/25 03:51:09;;;;;;;39.57;34.50;;;18.90;99.90;;;;;;5077376;28;20486;-82
2022/06/25 03:53:36;;;;;;;40.00;35.30;;;18.90;99.90;;;;;;5095802;28;20487;-82
2022/06/25 03:56:03;;;;;;;43.73;39.00;;;18.90;99.90;;;;;;5076859;28;20577;-80
2022/06/25 03:58:30;;;;;;;36.33;32.53;;;18.80;99.90;;;;;;5082095;28;20479;-83
2022/06/25 04:00:57;;;;;;;37.73;33.67;;;18.90;99.90;;;;;;5091092;28;20560;-82
2022/06/25 04:03:24;;;;;;;30.50;27.50;;;18.90;99.90;;;;;;5083869;28;20442;-84
2022/06/25 04:05:51;;;;;;;31.60;28.37;;;18.90;99.90;;;;;;5084792;28;20444;-82
2022/06/25 04:08:19;;;;;;;34.60;31.20;;;18.90;99.90;;;;;;5093515;28;20535;-82
2022/06/25 04:10:46;;;;;;;32.20;29.00;;;19.00;99.90;;;;;;5094728;28;20535;-83
2022/06/25 04:13:13;;;;;;;25.37;22.90;;;19.40;99.90;;;;;;5090758;28;20583;-83
2022/06/25 04:15:40;;;;;;;21.70;19.70;;;20.10;99.90;;;;;;5083456;28;20553;-83
2022/06/25 04:18:07;;;;;;;21.17;19.27;;;20.90;99.90;;;;;;5079831;28;20448;-82
2022/06/25 04:20:34;;;;;;;17.27;15.83;;;21.60;99.90;;;;;;5088145;28;20508;-81
2022/06/25 04:23:01;;;;;;;19.90;18.10;;;22.10;99.90;;;;;;5084721;28;20477;-79
2022/06/25 04:25:29;;;;;;;20.17;18.13;;;22.10;99.90;;;;;;5080276;28;20453;-80
2022/06/25 04:30:41;;;;;;;17.83;16.30;;;22.70;99.90;;;;;;5091648;28;20480;-80
2022/06/25 04:33:08;;;;;;;15.80;14.40;;;23.40;99.90;;;;;;5091813;28;20505;-79
2022/06/25 04:35:35;;;;;;;18.07;16.57;;;24.00;99.90;;;;;;5084561;28;20445;-80
2022/06/25 04:38:01;;;;;;;20.93;19.13;;;24.00;99.90;;;;;;5100152;28;20464;-79
2022/06/25 04:47:23;;;;;;;15.20;13.80;;;25.10;99.90;;;;;;5090035;28;20480;-80
2022/06/25 04:49:50;;;;;;;18.13;16.40;;;25.80;99.90;;;;;;5113178;28;20416;-80
2022/06/25 04:52:17;;;;;;;18.97;17.17;;;26.00;99.90;;;;;;5108242;28;20461;-81
2022/06/25 04:54:44;;;;;;;18.43;16.80;;;26.20;99.90;;;;;;5093404;28;20446;-83
2022/06/25 04:57:11;;;;;;;20.97;19.17;;;26.50;99.90;;;;;;5091730;28;20474;-82
2022/06/25 04:59:38;;;;;;;20.63;18.80;;;26.60;99.90;;;;;;5079071;28;20454;-83
2022/06/25 05:02:05;;;;;;;19.47;17.67;;;26.60;99.90;;;;;;5078284;28;20486;-82
2022/06/25 05:04:33;;;;;;;22.50;20.50;;;26.80;99.90;;;;;;5085226;28;20450;-82
2022/06/25 05:07:00;;;;;;;23.27;20.87;;;27.00;99.90;;;;;;5090571;28;20422;-82
2022/06/25 05:09:27;;;;;;;21.30;18.87;;;27.10;99.90;;;;;;5082912;28;20469;-82
2022/06/25 05:11:54;;;;;;;18.90;17.10;;;27.10;99.90;;;;;;5087617;28;20449;-82
2022/06/25 05:14:21;;;;;;;20.37;18.67;;;27.90;99.90;;;;;;5087877;28;20442;-81
2022/06/25 05:16:48;;;;;;;21.60;19.50;;;28.20;99.40;;;;;;5081119;28;20505;-83
2022/06/25 05:19:15;;;;;;;20.67;18.10;;;28.30;99.10;;;;;;5119228;28;20459;-82
2022/06/25 05:21:43;;;;;;;19.73;17.80;;;28.80;98.50;;;;;;5083141;28;20482;-86
2022/06/25 05:24:10;;;;;;;18.90;17.27;;;29.50;96.30;;;;;;5077160;28;20449;-84
2022/06/25 05:26:37;;;;;;;18.97;17.33;;;29.90;94.30;;;;;;5079484;28;20496;-84
2022/06/25 05:29:03;;;;;;;20.07;18.27;;;30.20;93.70;;;;;;5080534;28;20478;-84
2022/06/25 05:31:30;;;;;;;21.17;19.10;;;30.20;93.10;;;;;;5081539;28;20499;-84
2022/06/25 05:33:57;;;;;;;22.43;20.33;;;28.80;94.40;;;;;;5082040;28;20462;-82
2022/06/25 05:36:24;;;;;;;24.50;22.03;;;27.30;98.10;;;;;;5078316;28;20490;-86
2022/06/25 05:38:52;;;;;;;19.37;17.67;;;26.40;99.90;;;;;;5090145;28;20431;-85
2022/06/25 05:41:19;;;;;;;21.90;19.90;;;27.20;99.90;;;;;;5081583;28;20465;-85
2022/06/25 05:43:46;;;;;;;22.03;20.00;;;27.40;99.90;;;;;;5082084;28;20434;-87
2022/06/25 05:46:13;;;;;;;19.20;17.50;;;27.00;99.90;;;;;;5089849;28;20449;-86
2022/06/25 05:48:40;;;;;;;20.03;18.23;;;26.80;99.90;;;;;;5084511;28;20454;-85
2022/06/25 05:51:07;;;;;;;17.90;16.20;;;27.50;99.90;;;;;;5082161;28;20481;-86
2022/06/25 05:53:35;;;;;;;19.90;17.90;;;28.70;98.20;;;;;;5090393;28;20465;-85
2022/06/25 05:56:03;;;;;;;19.20;17.10;;;29.80;95.10;;;;;;5086007;28;20485;-85
2022/06/25 05:58:30;;;;;;;18.30;16.60;;;30.60;92.80;;;;;;5086018;28;20469;-85
2022/06/25 06:00:57;;;;;;;15.53;14.13;;;31.30;91.20;;;;;;5077702;28;20482;-85
2022/06/25 06:03:24;;;;;;;15.87;13.93;;;32.10;90.20;;;;;;5080816;28;20441;-80
2022/06/25 06:05:52;;;;;;;16.77;15.03;;;32.30;87.70;;;;;;5074760;28;20446;-85
2022/06/25 06:08:19;;;;;;;11.67;10.57;;;32.30;86.50;;;;;;5074066;28;20550;-84
2022/06/25 06:10:45;;;;;;;21.57;12.07;;;31.20;88.50;;;;;;5082092;28;20461;-84
2022/06/25 06:13:14;;;;;;;15.53;10.80;;;31.70;88.00;;;;;;5084715;28;20454;-85
2022/06/25 06:15:41;;;;;;;8.63;7.73;;;32.50;86.00;;;;;;5079468;28;20493;-84
2022/06/25 06:18:08;;;;;;;10.13;7.53;;;32.30;83.80;;;;;;5090580;28;20453;-84
2022/06/25 06:20:35;;;;;;;7.97;7.10;;;32.20;82.30;;;;;;5097537;27;20460;-82
2022/06/25 06:23:02;;;;;;;7.57;6.90;;;32.00;82.30;;;;;;5090132;28;20446;-85
2022/06/25 06:25:29;;;;;;;8.93;6.47;;;32.00;82.20;;;;;;5089479;28;20464;-84
2022/06/25 06:27:56;;;;;;;6.23;5.63;;;32.00;81.90;;;;;;5090496;28;20533;-83
2022/06/25 06:30:25;;;;;;;7.30;6.50;;;32.30;81.30;;;;;;5082484;28;20442;-85
2022/06/25 06:32:52;;;;;;;6.93;6.23;;;32.50;79.70;;;;;;5077175;28;20517;-84
2022/06/25 06:35:19;;;;;;;5.70;5.17;;;32.40;79.60;;;;;;5078415;28;20453;-84
2022/06/25 06:37:46;;;;;;;8.10;5.60;;;32.30;79.00;;;;;;5083391;28;20488;-84
2022/06/25 06:40:14;;;;;;;5.67;4.57;;;32.30;79.50;;;;;;5084331;28;20460;-83
2022/06/25 06:42:41;;;;;;;4.97;4.57;;;32.90;78.30;;;;;;5090695;28;20471;-84
2022/06/25 06:45:09;;;;;;;5.67;4.47;;;33.30;77.90;;;;;;5079744;28;20445;-84
2022/06/25 06:47:38;;;;;;;7.03;4.33;;;33.70;76.20;;;;;;5090356;28;20485;-83
2022/06/25 06:50:06;;;;;;;6.70;5.23;;;33.80;75.70;;;;;;5081809;28;20445;-85
2022/06/25 06:52:35;;;;;;;4.97;4.00;;;34.00;74.20;;;;;;5073145;28;20469;-83
2022/06/25 06:55:04;;;;;;;5.87;4.23;;;34.10;74.00;;;;;;5082571;28;20446;-83
2022/06/25 06:57:31;;;;;;;4.67;4.27;;;34.50;74.10;;;;;;5075727;28;20503;-84
2022/06/25 06:59:58;;;;;;;6.90;4.80;;;34.60;71.60;;;;;;5100680;28;20490;-85
2022/06/25 07:02:26;;;;;;;4.00;3.60;;;34.60;71.70;;;;;;5070666;28;20465;-85
2022/06/25 07:04:54;;;;;;;4.20;3.80;;;34.90;71.50;;;;;;5091835;28;20972;-83
2022/06/25 07:07:21;;;;;;;4.53;4.13;;;35.00;70.10;;;;;;5076163;28;20481;-84
2022/06/25 07:09:48;;;;;;;5.13;4.63;;;35.00;70.00;;;;;;5086678;28;20869;-83
2022/06/25 07:12:15;;;;;;;4.30;3.90;;;35.10;69.30;;;;;;5072561;28;20493;-84
2022/06/25 07:14:42;;;;;;;5.57;4.10;;;35.10;70.00;;;;;;5074850;28;20457;-85
2022/06/25 07:17:09;;;;;;;4.43;3.67;;;35.10;68.90;;;;;;5083570;28;20891;-82
2022/06/25 07:19:36;;;;;;;3.93;3.60;;;35.50;68.50;;;;;;5072146;28;20457;-86
2022/06/25 07:22:04;;;;;;;4.03;3.63;;;35.40;68.00;;;;;;5080716;28;20489;-85
2022/06/25 07:24:31;;;;;;;4.27;2.93;;;35.30;67.70;;;;;;5085530;28;20449;-84
2022/06/25 07:26:58;;;;;;;4.33;3.93;;;35.70;67.10;;;;;;5086657;28;20508;-84
2022/06/25 07:29:25;;;;;;;3.97;3.13;;;35.10;67.30;;;;;;5085046;28;20490;-84
2022/06/25 07:31:52;;;;;;;8.43;4.60;;;35.40;67.10;;;;;;5097825;28;20502;-82
2022/06/25 07:34:19;;;;;;;4.37;3.67;;;35.30;67.20;;;;;;5084709;28;20457;-84
2022/06/25 07:36:46;;;;;;;4.80;3.40;;;35.00;67.60;;;;;;5074553;28;21018;-83
2022/06/25 07:39:14;;;;;;;3.90;3.50;;;35.40;67.90;;;;;;5077884;28;20532;-85
2022/06/25 07:41:41;;;;;;;4.50;4.10;;;35.60;66.00;;;;;;5074396;28;20477;-85
2022/06/25 07:44:08;;;;;;;4.50;3.90;;;35.60;66.40;;;;;;5083735;28;20502;-84
2022/06/25 07:49:16;;;;;;;4.03;3.63;;;35.10;67.70;;;;;;5083471;28;20523;-85
2022/06/25 07:51:59;;;;;;;8.10;2.97;;;35.20;66.10;;;;;;5077967;28;20474;-85
2022/06/25 07:54:30;;;;;;;3.70;3.37;;;35.30;66.60;;;;;;5076095;28;20472;-84
2022/06/25 07:56:58;;;;;;;5.57;4.30;;;35.40;66.00;;;;;;5079064;28;20486;-85
2022/06/25 07:59:25;;;;;;;5.43;3.33;;;35.70;65.30;;;;;;5072929;28;20549;-83
2022/06/25 08:01:52;;;;;;;4.67;3.60;;;35.80;64.30;;;;;;5082762;28;20556;-83
2022/06/25 08:04:19;;;;;;;5.07;4.60;;;35.20;65.10;;;;;;5071367;28;20949;-83
2022/06/25 08:06:47;;;;;;;4.53;3.73;;;35.00;66.10;;;;;;5075860;28;20442;-82
2022/06/25 08:09:13;;;;;;;5.13;3.40;;;35.40;65.30;;;;;;5070258;28;20483;-84
2022/06/25 08:11:53;;;;;;;5.27;3.30;;;35.30;65.20;;;;;;5073788;28;20488;-81
2022/06/25 08:14:20;;;;;;;4.33;4.00;;;35.40;64.20;;;;;;5073629;28;20458;-82
2022/06/25 08:16:48;;;;;;;6.20;3.70;;;35.80;63.50;;;;;;5074999;28;21061;-67
2022/06/25 08:19:14;;;;;;;7.40;4.27;;;35.30;64.30;;;;;;5073556;28;20449;-68
2022/06/25 08:21:41;;;;;;;8.50;3.93;;;34.10;66.10;;;;;;5065259;28;20470;-67
2022/06/25 08:24:08;;;;;;;3.90;3.50;;;33.50;67.30;;;;;;5058975;28;20442;-67
2022/06/25 08:26:35;;;;;;;7.00;4.00;;;32.70;69.60;;;;;;5058743;28;20442;-67
2022/06/25 08:29:03;;;;;;;4.20;3.80;;;32.60;69.60;;;;;;5058359;28;20545;-67
2022/06/25 08:31:30;;;;;;;6.60;4.53;;;33.50;69.20;;;;;;5063384;28;20467;-67
2022/06/25 08:33:58;;;;;;;5.70;4.47;;;33.90;68.20;;;;;;5055655;28;20450;-68
2022/06/25 08:36:24;;;;;;;7.00;3.13;;;34.40;67.60;;;;;;5071069;28;20550;-67
2022/06/25 08:38:51;;;;;;;10.17;4.50;;;34.80;66.80;;;;;;5066067;28;20440;-66
2022/06/25 08:41:19;;;;;;;4.53;3.53;;;34.60;65.20;;;;;;5068076;28;20496;-67
2022/06/25 08:43:46;;;;;;;4.90;4.00;;;34.70;65.40;;;;;;5076491;28;20444;-66
2022/06/25 08:46:16;;;;;;;16.33;10.93;;;35.10;64.90;;;;;;5073258;28;20849;-66
2022/06/25 08:48:47;;;;;;;3.93;2.63;;;35.60;64.40;;;;;;5071254;28;20449;-67
2022/06/25 08:51:16;;;;;;;5.00;3.30;;;35.40;63.40;;;;;;5076463;28;20465;-68
2022/06/25 08:53:43;;;;;;;4.50;3.07;;;35.90;62.70;;;;;;5077083;28;20445;-66
2022/06/25 08:56:15;;;;;;;4.30;3.17;;;35.60;62.30;;;;;;5061811;28;20531;-67
2022/06/25 08:58:44;;;;;;;5.23;3.23;;;36.30;63.20;;;;;;5060154;28;20453;-68
2022/06/25 09:01:12;;;;;;;3.93;3.07;;;35.60;61.80;;;;;;5066728;28;20447;-67
2022/06/25 09:03:40;;;;;;;4.57;4.17;;;36.20;61.50;;;;;;5069161;28;20467;-67
2022/06/25 09:06:14;;;;;;;7.00;3.20;;;36.00;60.90;;;;;;5090151;28;20448;-66
2022/06/25 09:08:42;;;;;;;4.00;3.13;;;36.30;60.80;;;;;;5079333;28;20501;-66
2022/06/25 09:11:10;;;;;;;4.63;3.60;;;36.50;60.00;;;;;;5076439;28;20850;-67
2022/06/25 09:13:37;;;;;;;3.90;2.50;;;35.30;60.60;;;;;;5076989;28;20833;-67
2022/06/25 09:16:04;;;;;;;3.23;2.93;;;35.80;61.10;;;;;;5068581;28;20454;-66
2022/06/25 09:18:34;;;;;;;5.30;3.10;;;35.90;59.10;;;;;;5068208;28;20478;-67
2022/06/25 09:21:04;;;;;;;5.30;2.63;;;36.00;59.90;;;;;;5077636;28;20853;-67
2022/06/25 09:23:32;;;;;;;4.27;2.70;;;36.10;59.50;;;;;;5058178;28;20467;-68
2022/06/25 09:26:04;;;;;;;3.33;2.43;;;35.70;58.80;;;;;;5076618;28;20541;-67
2022/06/25 09:28:33;;;;;;;3.13;2.83;;;35.90;60.00;;;;;;5074579;28;20443;-67
2022/06/25 09:31:02;;;;;;;4.77;2.73;;;35.50;59.40;;;;;;5058838;28;20497;-69
2022/06/25 09:33:29;;;;;;;5.87;3.30;;;34.90;61.30;;;;;;5070182;28;20452;-68
2022/06/25 09:35:56;;;;;;;4.87;3.07;;;34.00;62.90;;;;;;5071305;28;20815;-68
2022/06/25 09:38:25;;;;;;;6.43;3.27;;;34.00;63.60;;;;;;5071887;28;20489;-68
2022/06/25 09:40:53;;;;;;;3.87;3.50;;;34.50;62.60;;;;;;5064348;28;20473;-68
2022/06/25 09:43:21;;;;;;;4.83;2.63;;;34.70;61.70;;;;;;5069354;28;20453;-66
2022/06/25 09:45:50;;;;;;;4.43;2.20;;;35.10;60.50;;;;;;5071486;28;20444;-69
2022/06/25 09:48:19;;;;;;;3.37;3.00;;;35.40;60.50;;;;;;5073544;28;20452;-68
2022/06/25 09:51:04;;;;;;;3.83;2.23;;;34.90;61.00;;;;;;5071509;28;20475;-67
2022/06/25 09:53:33;;;;;;;4.77;2.70;;;35.10;61.30;;;;;;5070151;28;20432;-67
2022/06/25 09:56:01;;;;;;;3.97;2.73;;;35.40;60.00;;;;;;5080060;28;20450;-66
2022/06/25 09:58:31;;;;;;;5.77;2.17;;;34.90;58.20;;;;;;5064759;28;20575;-66
2022/06/25 10:00:58;;;;;;;2.63;2.30;;;35.20;58.30;;;;;;5068334;28;20524;-67
2022/06/25 10:03:26;;;;;;;5.73;2.87;;;35.40;58.20;;;;;;5077306;28;20921;-67
2022/06/25 10:05:56;;;;;;;3.50;2.07;;;35.20;58.40;;;;;;5072686;28;20820;-69
2022/06/25 10:08:24;;;;;;;2.63;1.83;;;34.20;58.90;;;;;;5072434;28;20438;-68
2022/06/25 10:10:55;;;;;;;4.37;2.33;;;33.00;61.10;;;;;;5073611;28;21031;-68
2022/06/25 10:13:24;;;;;;;2.50;2.30;;;32.80;62.50;;;;;;5059704;28;20456;-67
2022/06/25 10:15:52;;;;;;;3.67;2.10;;;32.70;62.30;;;;;;5074134;28;20452;-73
2022/06/25 10:18:19;;;;;;;1.73;1.63;;;32.50;61.50;;;;;;5079517;28;20480;-68
2022/06/25 10:20:46;;;;;;;3.70;2.00;;;31.60;62.60;;;;;;5070637;28;20464;-67
2022/06/25 10:23:14;;;;;;;3.03;2.10;;;32.40;62.70;;;;;;5060688;28;20465;-68
2022/06/25 10:25:42;;;;;;;2.03;1.47;;;33.10;60.50;;;;;;5072536;28;20499;-67
2022/06/25 10:28:12;;;;;;;2.17;1.83;;;33.40;59.40;;;;;;5076575;28;20481;-67
2022/06/25 10:30:45;;;;;;;2.80;1.43;;;33.60;59.70;;;;;;5073585;28;20445;-67
2022/06/25 10:33:13;;;;;;;2.00;1.43;;;33.40;59.50;;;;;;5055599;28;20453;-67
2022/06/25 10:35:41;;;;;;;5.47;2.00;;;34.00;59.20;;;;;;5053966;28;20997;-67
2022/06/25 10:38:10;;;;;;;5.37;2.03;;;34.60;58.30;;;;;;5050301;28;20638;-66
2022/06/25 10:40:56;;;;;;;3.70;1.90;;;34.60;57.60;;;;;;5054671;28;20448;-68
2022/06/25 10:43:49;;;;;;;2.23;1.73;;;34.00;59.10;;;;;;5074907;28;20506;-67
2022/06/25 10:46:30;;;;;;;2.20;1.40;;;33.00;59.60;;;;;;4999632;28;20468;-68
2022/06/25 10:49:34;;;;;;;2.20;1.60;;;32.60;61.60;;;;;;5079946;28;20510;-80
2022/06/25 10:52:05;;;;;;;3.53;1.87;;;32.30;61.50;;;;;;5080884;28;20537;-80
2022/06/25 10:54:38;;;;;;;1.60;1.47;;;31.70;63.10;;;;;;5080357;28;20841;-80
2022/06/25 10:57:05;;;;;;;2.43;1.50;;;31.30;64.00;;;;;;5069232;28;20482;-79
2022/06/25 10:59:47;;;;;;;1.80;1.60;;;31.50;65.00;;;;;;5075851;28;21266;-81
2022/06/25 11:02:16;;;;;;;4.20;1.50;;;31.40;65.10;;;;;;5090766;28;20468;-82
2022/06/25 11:04:50;;;;;;;2.00;1.40;;;31.20;64.60;;;;;;5077845;28;20479;-82
2022/06/25 11:07:19;;;;;;;2.30;1.47;;;31.20;66.00;;;;;;5070187;28;20459;-82
2022/06/25 11:09:54;;;;;;;6.73;1.73;;;31.40;64.70;;;;;;5099868;28;20463;-84
2022/06/25 11:12:22;;;;;;;1.93;1.57;;;31.20;64.20;;;;;;5068309;28;20473;-82
2022/06/25 11:14:59;;;;;;;2.40;1.67;;;31.30;64.60;;;;;;5089375;28;20509;-83
2022/06/25 11:17:26;;;;;;;2.23;1.57;;;31.10;64.60;;;;;;5073771;28;20473;-84
2022/06/25 11:19:53;;;;;;;4.80;1.40;;;31.00;64.60;;;;;;5078626;28;20479;-84
2022/06/25 11:22:20;;;;;;;6.67;1.83;;;31.20;63.60;;;;;;5065432;28;20553;-81
2022/06/25 11:30:15;;;;;;;2.23;1.60;;;31.70;65.70;;;;;;5110790;28;20459;-81
2022/06/25 11:32:45;;;;;;;2.17;1.13;;;31.80;63.90;;;;;;5091547;28;20462;-82
2022/06/25 11:35:12;;;;;;;1.63;1.53;;;31.70;63.80;;;;;;5075812;28;20468;-82
2022/06/25 11:37:39;;;;;;;4.83;1.87;;;31.60;63.80;;;;;;5093132;28;20472;-82
2022/06/25 11:40:14;;;;;;;2.33;1.80;;;31.40;64.10;;;;;;5116063;28;20552;-81
2022/06/25 11:42:41;;;;;;;3.00;1.60;;;30.90;66.40;;;;;;5085442;28;20457;-81
2022/06/25 11:45:09;;;;;;;4.30;1.60;;;31.10;66.20;;;;;;5081185;28;20458;-83
2022/06/25 11:47:38;;;;;;;1.87;1.50;;;31.00;64.90;;;;;;5099664;28;20520;-83
2022/06/25 11:50:08;;;;;;;3.87;2.37;;;31.20;64.70;;;;;;5100219;28;20423;-82
2022/06/25 11:52:39;;;;;;;3.83;2.23;;;30.90;64.60;;;;;;5100355;28;20456;-81
2022/06/25 11:55:08;;;;;;;2.40;1.40;;;30.80;66.20;;;;;;5100474;28;20428;-82
2022/06/25 11:57:40;;;;;;;1.97;1.67;;;30.90;65.30;;;;;;5099775;28;20498;-82
2022/06/25 12:00:13;;;;;;;3.87;2.23;;;30.70;66.20;;;;;;5099460;28;20464;-83
2022/06/25 12:02:42;;;;;;;4.00;1.87;;;30.60;66.60;;;;;;5099439;28;20524;-82
2022/06/25 12:05:10;;;;;;;1.90;1.60;;;30.10;64.00;;;;;;5106060;28;20459;-83
2022/06/25 12:07:38;;;;;;;3.30;2.00;;;30.00;65.30;;;;;;5119768;28;20436;-81
2022/06/25 12:10:09;;;;;;;2.33;1.70;;;29.70;65.90;;;;;;5120004;28;20460;-83
2022/06/25 12:12:43;;;;;;;3.80;1.80;;;29.70;66.00;;;;;;5109950;28;20532;-83
2022/06/25 12:15:12;;;;;;;2.77;1.87;;;29.80;66.40;;;;;;5104961;28;20439;-82
2022/06/25 12:17:43;;;;;;;2.90;1.77;;;29.90;66.80;;;;;;5083769;28;20489;-81
2022/06/25 12:20:11;;;;;;;4.77;2.10;;;30.30;66.70;;;;;;5076443;28;20446;-82
2022/06/25 12:22:40;;;;;;;3.63;2.00;;;30.40;65.40;;;;;;5095062;28;20508;-81
2022/06/25 12:25:09;;;;;;;3.30;1.67;;;30.70;65.30;;;;;;5076787;28;20496;-81
2022/06/25 12:27:46;;;;;;;3.17;2.00;;;30.60;64.70;;;;;;5066753;28;20438;-80
2022/06/25 12:30:14;;;;;;;2.90;1.30;;;30.60;64.50;;;;;;5066740;28;20519;-77
2022/06/25 12:32:43;;;;;;;3.30;2.30;;;30.30;65.10;;;;;;5082012;28;20457;-79
2022/06/25 12:35:17;;;;;;;3.50;1.67;;;30.20;66.20;;;;;;5075019;28;20451;-78
2022/06/25 12:37:59;;;;;;;2.97;1.77;;;30.00;65.90;;;;;;5070985;28;20458;-83
2022/06/25 12:40:26;;;;;;;2.07;1.40;;;30.10;65.70;;;;;;5080430;28;20525;-83
2022/06/25 12:43:00;;;;;;;1.90;1.30;;;30.30;65.20;;;;;;5090598;28;20954;-82
2022/06/25 12:45:29;;;;;;;2.23;1.53;;;30.20;64.70;;;;;;5069538;28;20470;-83
2022/06/25 12:48:00;;;;;;;3.30;1.93;;;30.40;64.30;;;;;;5069770;28;20463;-85
2022/06/25 12:50:45;;;;;;;3.60;1.43;;;30.60;64.00;;;;;;5072463;28;20440;-84
2022/06/25 12:53:29;;;;;;;2.67;2.13;;;30.70;63.10;;;;;;5074561;28;20483;-85
2022/06/25 12:56:05;;;;;;;1.33;1.23;;;30.50;63.70;;;;;;5077095;28;20513;-85
2022/06/25 12:58:44;;;;;;;6.47;1.57;;;30.50;64.20;;;;;;5091935;28;20559;-84
2022/06/25 13:01:21;;;;;;;2.17;1.83;;;30.40;64.00;;;;;;5077916;28;20488;-83
2022/06/25 13:03:50;;;;;;;2.90;1.70;;;30.10;64.80;;;;;;5078360;28;20524;-83
2022/06/25 13:06:20;;;;;;;1.60;1.20;;;29.80;65.20;;;;;;5084271;28;20464;-84
2022/06/25 13:08:47;;;;;;;1.50;1.40;;;29.80;65.70;;;;;;5088599;28;20444;-82
2022/06/25 13:11:25;;;;;;;3.63;1.87;;;29.80;65.40;;;;;;5078753;28;20458;-81